This is the latest recevied weather packets stored in our database for station/object K2ATL. If no packets are shown the sender has not sent any weather packets the latest 10 day(s).
| Time | Temp. | Humidity | Pressure | Rain* | Wind** | Luminosity | Snow |
|---|---|---|---|---|---|---|---|
| 1787496569 | 21.11° C | 79% | 1103.4 hPa | 0 mm | - | 555 W/m² | - |
| 1787496264 | 21.11° C | 82% | 1103.3 hPa | 0 mm | - | 531 W/m² | - |
| 1787495962 | 22.22° C | 83% | 1103.3 hPa | 0 mm | - | 163 W/m² | - |
| 1787495658 | 22.78° C | 85% | 1103.4 hPa | 0 mm | - | 69 W/m² | - |
| 1787495354 | 22.78° C | 85% | 1103.4 hPa | 0 mm | - | 69 W/m² | - |
| 1787495050 | 22.78° C | 87% | 1103.4 hPa | 0 mm | - | 66 W/m² | - |
| 1787494750 | 22.22° C | 84% | 1103.2 hPa | 0 mm | - | 78 W/m² | - |
| 1787494445 | 22.22° C | 83% | 1103.2 hPa | 0 mm | - | 79 W/m² | - |
| 1787494141 | 22.22° C | 84% | 1103.1 hPa | 0 mm | - | 111 W/m² | - |
| 1787493837 | 22.22° C | 84% | 1103.1 hPa | 0 mm | - | 77 W/m² | - |
| 1787493537 | 21.11° C | 83% | 1103.3 hPa | 0 mm | - | 179 W/m² | - |
| 1787493233 | 22.22° C | 84% | 1103.2 hPa | 0 mm | - | 72 W/m² | - |
| 1787492928 | 22.22° C | 84% | 1103.1 hPa | 0 mm | - | 59 W/m² | - |
| 1787492624 | 22.22° C | 83% | 1103.1 hPa | 0 mm | - | 55 W/m² | - |
| 1787492320 | 21.67° C | 84% | 1103.1 hPa | 0 mm | - | 64 W/m² | - |
| 1787492014 | 21.67° C | 84% | 1103.1 hPa | 0 mm | - | 75 W/m² | - |
| 1787491710 | 21.67° C | 84% | 1102.8 hPa | 0 mm | - | 52 W/m² | - |
| 1787491409 | 21.67° C | 84% | 1102.7 hPa | 0 mm | - | 49 W/m² | - |
| 1787491106 | 21.67° C | 85% | 1102.8 hPa | 0 mm | - | 48 W/m² | - |
| 1787490802 | 21.67° C | 84% | 1102.5 hPa | 0 mm | - | 47 W/m² | - |
| 1787490501 | 21.67° C | 84% | 1102.8 hPa | 0 mm | - | 45 W/m² | - |
| 1787490200 | 21.67° C | 85% | 1102.6 hPa | 0 mm | - | 44 W/m² | - |
| 1787489895 | 21.11° C | 86% | 1102.6 hPa | 0 mm | - | 64 W/m² | - |
| 1787489590 | 21.67° C | 86% | 1102.5 hPa | 0 mm | - | 40 W/m² | - |
| 1787489286 | 21.11° C | 85% | 1102.2 hPa | 0 mm | - | 39 W/m² | - |
* Rain latest hour (hover to see other rain measurements)
** Current wind speed in m/s (hover to see current wind gust speed)